createdAt,value
2018-09-17T00:01:32.050Z,90.20
2018-09-17T00:04:02.575Z,90.30
2018-09-17T00:06:30.936Z,90.60
2018-09-17T00:08:58.283Z,91.30
2018-09-17T00:11:26.937Z,91.20
2018-09-17T00:16:31.042Z,90.70
2018-09-17T00:18:58.325Z,91.20
2018-09-17T00:21:29.276Z,90.50
2018-09-17T00:23:58.588Z,90.00
2018-09-17T00:26:29.560Z,90.60
2018-09-17T00:28:57.991Z,91.10
2018-09-17T00:34:07.002Z,90.50
2018-09-17T00:36:34.915Z,90.20
2018-09-17T00:39:02.159Z,90.70
2018-09-17T00:41:29.102Z,91.20
2018-09-17T00:43:57.585Z,90.70
2018-09-17T00:46:24.373Z,90.50
2018-09-17T00:48:51.062Z,90.30
2018-09-17T00:51:17.589Z,89.80
2018-09-17T00:53:44.288Z,90.00
2018-09-17T00:56:12.643Z,90.40
2018-09-17T00:58:40.041Z,91.20
2018-09-17T01:01:06.735Z,90.40
2018-09-17T01:03:34.750Z,90.50
2018-09-17T01:06:01.445Z,91.80
2018-09-17T01:08:29.821Z,91.40
2018-09-17T01:13:29.173Z,90.60
2018-09-17T01:15:55.801Z,90.40
2018-09-17T01:18:23.603Z,89.80
2018-09-17T01:20:50.591Z,90.20
2018-09-17T01:23:17.525Z,89.70
2018-09-17T01:25:44.175Z,89.20
2018-09-17T01:28:15.191Z,89.90
2018-09-17T01:30:41.847Z,90.00
2018-09-17T01:33:09.645Z,89.80
2018-09-17T01:35:39.857Z,89.50
2018-09-17T01:38:07.312Z,90.10
2018-09-17T01:40:34.082Z,90.60
2018-09-17T01:45:32.810Z,91.60
2018-09-17T01:47:59.648Z,91.20
2018-09-17T01:50:27.153Z,90.90
2018-09-17T01:55:26.354Z,90.40
2018-09-17T01:57:53.218Z,90.80
2018-09-17T02:00:19.984Z,90.80
2018-09-17T02:02:48.110Z,90.60
2018-09-17T02:05:14.911Z,91.50
2018-09-17T02:07:43.078Z,91.40
2018-09-17T02:10:10.012Z,90.40
2018-09-17T02:12:36.970Z,90.60
2018-09-17T02:15:03.539Z,90.80
2018-09-17T02:17:30.470Z,90.70
2018-09-17T02:19:57.312Z,90.40
2018-09-17T02:22:23.967Z,90.80
2018-09-17T02:24:50.811Z,90.60
2018-09-17T02:27:17.645Z,90.30
2018-09-17T02:29:44.512Z,90.10
2018-09-17T02:32:11.733Z,90.40
2018-09-17T02:34:38.433Z,90.60
2018-09-17T02:37:05.076Z,90.80
2018-09-17T02:39:32.546Z,91.20
2018-09-17T02:42:00.205Z,91.10
2018-09-17T02:44:27.776Z,91.20
2018-09-17T02:46:54.987Z,91.20
2018-09-17T02:49:22.630Z,91.10
2018-09-17T02:51:50.726Z,91.50
2018-09-17T02:54:19.227Z,91.00
2018-09-17T02:56:46.370Z,90.80
2018-09-17T02:59:13.516Z,91.00
2018-09-17T03:01:40.736Z,90.50
2018-09-17T03:04:09.642Z,89.70
2018-09-17T03:06:36.574Z,88.90
2018-09-17T03:09:03.238Z,89.30
2018-09-17T03:11:31.515Z,89.60
2018-09-17T03:13:58.103Z,90.60
2018-09-17T03:16:25.379Z,90.30
2018-09-17T03:18:52.075Z,89.70
2018-09-17T03:21:18.870Z,90.20
2018-09-17T03:23:46.029Z,90.80
2018-09-17T03:26:16.869Z,91.10
2018-09-17T03:31:18.396Z,91.40
2018-09-17T03:33:48.785Z,91.90
2018-09-17T03:36:16.449Z,92.00
2018-09-17T03:38:45.221Z,91.80
2018-09-17T03:41:12.460Z,91.10
2018-09-17T03:48:44.493Z,91.20
2018-09-17T03:51:12.188Z,91.40
2018-09-17T03:53:40.324Z,91.00
2018-09-17T03:56:07.412Z,91.00
2018-09-17T04:01:08.443Z,91.20
2018-09-17T04:03:36.401Z,91.70
2018-09-17T04:06:04.056Z,91.40
2018-09-17T04:08:35.048Z,90.70
2018-09-17T04:11:02.861Z,90.30
2018-09-17T04:23:39.413Z,91.50
2018-09-17T04:26:07.900Z,91.20
2018-09-17T04:28:35.855Z,91.10
2018-09-17T04:31:05.518Z,90.70
2018-09-17T04:33:33.364Z,90.80
2018-09-17T04:36:02.199Z,90.40
2018-09-17T04:38:29.957Z,90.20
2018-09-17T04:41:00.338Z,90.30
2018-09-17T04:48:34.274Z,89.20
2018-09-17T04:53:32.959Z,90.10
2018-09-17T04:56:00.355Z,90.30
2018-09-17T04:58:28.321Z,90.50
2018-09-17T05:00:56.175Z,91.00
2018-09-17T05:05:57.708Z,91.00
2018-09-17T05:08:28.170Z,91.20
2018-09-17T05:10:57.187Z,91.20
2018-09-17T05:13:27.081Z,91.50
2018-09-17T05:18:32.567Z,91.40
2018-09-17T05:21:01.194Z,91.90
2018-09-17T05:23:29.047Z,92.30
2018-09-17T05:25:57.767Z,92.50
2018-09-17T05:28:26.613Z,92.90
2018-09-17T05:30:57.659Z,93.10
2018-09-17T05:33:25.601Z,93.50
2018-09-17T05:35:55.232Z,92.10
2018-09-17T05:38:24.024Z,91.90
2018-09-17T05:40:52.845Z,91.80
2018-09-17T05:43:21.655Z,91.70
2018-09-17T05:45:50.992Z,91.30
2018-09-17T05:48:18.805Z,91.00
2018-09-17T05:50:46.915Z,91.20
2018-09-17T05:53:17.184Z,91.00
2018-09-17T05:55:46.292Z,90.90
2018-09-17T05:58:14.705Z,91.10
2018-09-17T06:00:43.640Z,91.20
2018-09-17T06:03:11.985Z,90.80
2018-09-17T06:05:39.346Z,90.80
2018-09-17T06:08:11.983Z,90.40
2018-09-17T06:10:43.747Z,90.40
2018-09-17T06:13:11.583Z,90.40
2018-09-17T06:15:41.291Z,90.20
2018-09-17T06:18:10.255Z,88.80
2018-09-17T06:20:40.932Z,88.00
2018-09-17T06:23:08.028Z,87.90
2018-09-17T06:25:36.727Z,87.80
2018-09-17T06:30:38.419Z,88.20
2018-09-17T06:33:09.980Z,86.70
2018-09-17T06:35:38.792Z,86.30
2018-09-17T06:38:07.182Z,86.00
2018-09-17T06:40:37.193Z,85.70
2018-09-17T06:43:04.501Z,85.50
2018-09-17T06:45:35.817Z,87.60
2018-09-17T06:48:03.630Z,87.40
2018-09-17T06:50:31.749Z,86.60
2018-09-17T06:53:00.179Z,85.60
2018-09-17T06:55:28.836Z,84.80
2018-09-17T06:58:02.137Z,84.70
2018-09-17T07:00:30.389Z,84.30
2018-09-17T07:03:00.357Z,84.30
2018-09-17T07:07:59.471Z,84.70
2018-09-17T07:10:28.986Z,84.30
2018-09-17T07:12:55.681Z,84.20
2018-09-17T07:15:23.672Z,84.50
2018-09-17T07:17:52.433Z,83.80
2018-09-17T07:20:22.879Z,83.10
2018-09-17T07:22:52.861Z,83.40
2018-09-17T07:25:19.565Z,83.30
2018-09-17T07:27:50.468Z,81.80
2018-09-17T07:30:17.436Z,82.00
2018-09-17T07:32:44.829Z,81.70
2018-09-17T07:35:12.500Z,81.70
2018-09-17T07:37:40.427Z,82.20
2018-09-17T07:40:11.009Z,81.70
2018-09-17T07:42:38.716Z,81.20
2018-09-17T07:45:07.188Z,79.80
2018-09-17T07:47:36.234Z,78.10
2018-09-17T07:50:04.767Z,78.80
2018-09-17T07:52:32.666Z,78.70
2018-09-17T07:55:01.028Z,79.30
2018-09-17T07:57:28.169Z,77.90
2018-09-17T07:59:59.758Z,77.30
2018-09-17T08:04:59.664Z,76.80
2018-09-17T08:07:27.628Z,79.00
2018-09-17T08:09:54.379Z,79.90
2018-09-17T08:12:22.359Z,80.10
2018-09-17T08:14:50.540Z,81.90
2018-09-17T08:17:17.838Z,79.10
2018-09-17T08:22:22.181Z,77.00
2018-09-17T08:24:50.773Z,77.10
2018-09-17T08:27:19.131Z,77.10
2018-09-17T08:29:49.266Z,76.70
2018-09-17T08:32:17.647Z,78.20
2018-09-17T08:34:45.377Z,76.90
2018-09-17T08:37:12.709Z,77.20
2018-09-17T08:39:40.464Z,76.00
2018-09-17T08:42:11.786Z,75.10
2018-09-17T08:44:41.434Z,74.80
2018-09-17T08:47:12.406Z,74.00
2018-09-17T08:49:42.187Z,75.70
2018-09-17T08:52:11.701Z,75.60
2018-09-17T08:54:40.723Z,74.20
2018-09-17T08:57:11.178Z,71.80
2018-09-17T08:59:39.588Z,75.30
2018-09-17T09:02:06.909Z,72.60
2018-09-17T09:04:35.000Z,71.70
2018-09-17T09:07:05.521Z,70.00
2018-09-17T09:09:34.438Z,71.60
2018-09-17T09:12:03.115Z,71.30
2018-09-17T09:14:30.719Z,70.70
2018-09-17T09:17:01.464Z,71.90
2018-09-17T09:19:29.225Z,68.10
2018-09-17T09:21:56.711Z,70.70
2018-09-17T09:24:25.796Z,66.50
2018-09-17T09:26:55.832Z,70.10
2018-09-17T09:29:26.502Z,70.50
2018-09-17T09:31:57.953Z,70.00
2018-09-17T09:34:28.356Z,70.10
2018-09-17T09:36:55.769Z,68.10
2018-09-17T09:39:29.306Z,68.40
2018-09-17T09:41:58.559Z,68.60
2018-09-17T09:49:33.104Z,67.50
2018-09-17T09:52:02.746Z,67.30
2018-09-17T09:54:33.790Z,66.30
2018-09-17T09:57:04.104Z,66.90
2018-09-17T09:59:35.539Z,65.80
2018-09-17T10:02:06.173Z,66.60
2018-09-17T10:04:35.586Z,68.60
2018-09-17T10:09:42.115Z,69.00
2018-09-17T10:12:10.533Z,67.10
2018-09-17T10:14:43.538Z,67.60
2018-09-17T10:17:13.679Z,66.60
2018-09-17T10:19:46.240Z,66.50
2018-09-17T10:24:45.725Z,66.30
2018-09-17T10:27:14.820Z,66.20
2018-09-17T10:29:46.675Z,65.60
2018-09-17T10:34:50.089Z,65.60
2018-09-17T10:37:17.828Z,66.70
2018-09-17T10:39:45.832Z,64.80
2018-09-17T10:42:14.358Z,62.80
2018-09-17T10:47:19.553Z,62.30
2018-09-17T10:49:48.973Z,61.90
2018-09-17T10:52:18.155Z,64.60
2018-09-17T10:54:44.921Z,61.80
2018-09-17T10:59:49.744Z,63.50
2018-09-17T11:04:49.807Z,63.10
2018-09-17T11:07:19.996Z,63.30
2018-09-17T11:09:51.154Z,62.30
2018-09-17T11:12:18.443Z,63.20
2018-09-17T11:14:51.187Z,62.30
2018-09-17T11:24:56.618Z,62.20
2018-09-17T11:27:24.599Z,62.10
2018-09-17T11:29:55.948Z,62.10
2018-09-17T11:32:22.899Z,59.90
2018-09-17T11:40:05.605Z,61.40
2018-09-17T11:42:34.841Z,62.50
2018-09-17T11:45:07.075Z,61.70
2018-09-17T11:47:36.577Z,59.90
2018-09-17T11:52:42.221Z,61.10
2018-09-17T11:55:11.244Z,58.90
2018-09-17T11:57:41.306Z,61.00
2018-09-17T12:00:08.886Z,59.60
2018-09-17T12:05:11.337Z,60.60
2018-09-17T12:07:39.946Z,58.60
2018-09-17T12:10:10.146Z,57.20
2018-09-17T12:12:37.231Z,57.80
2018-09-17T12:15:13.031Z,58.60
2018-09-17T12:17:41.186Z,58.30
2018-09-17T12:20:13.425Z,57.60
2018-09-17T12:22:41.534Z,57.10
2018-09-17T12:27:43.978Z,57.90
2018-09-17T12:30:15.120Z,59.00
2018-09-17T12:32:45.912Z,58.50
2018-09-17T12:35:15.763Z,58.10
2018-09-17T12:37:47.021Z,57.80
2018-09-17T12:40:16.264Z,57.40
2018-09-17T12:42:49.596Z,56.80
2018-09-17T12:45:17.743Z,57.50
2018-09-17T12:47:48.589Z,56.70
2018-09-17T12:57:53.739Z,57.90
2018-09-17T13:00:20.787Z,56.90
2018-09-17T13:05:21.468Z,55.90
2018-09-17T13:07:50.865Z,57.40
2018-09-17T13:10:19.458Z,56.60
2018-09-17T13:12:48.176Z,58.30
2018-09-17T13:15:17.128Z,59.00
2018-09-17T13:17:46.447Z,59.30
2018-09-17T13:20:19.039Z,57.10
2018-09-17T13:22:48.720Z,57.10
2018-09-17T13:27:50.905Z,57.10
2018-09-17T13:30:22.299Z,58.10
2018-09-17T13:32:51.619Z,58.40
2018-09-17T13:35:20.399Z,57.30
2018-09-17T13:37:50.020Z,57.20
2018-09-17T13:43:20.752Z,57.80
2018-09-17T13:48:32.966Z,57.60
2018-09-17T13:51:00.869Z,58.70
2018-09-17T13:53:36.499Z,58.10
2018-09-17T13:56:05.628Z,58.00
2018-09-17T13:58:33.456Z,56.10
2018-09-17T14:01:02.132Z,57.40
2018-09-17T14:03:37.919Z,59.10
2018-09-17T14:06:11.257Z,59.40
2018-09-17T14:08:44.210Z,58.40
2018-09-17T14:11:19.100Z,59.70
2018-09-17T14:13:49.973Z,58.90
2018-09-17T14:16:17.692Z,58.30
2018-09-17T14:21:32.453Z,58.40
2018-09-17T14:24:02.198Z,56.80
2018-09-17T14:34:12.688Z,56.80
2018-09-17T14:39:19.559Z,56.20
2018-09-17T14:41:48.335Z,56.90
2018-09-17T14:44:16.688Z,56.40
2018-09-17T14:49:24.943Z,56.80
2018-09-17T14:51:55.567Z,56.90
2018-09-17T14:54:23.888Z,57.10
2018-09-17T15:04:47.890Z,58.10
2018-09-17T15:07:17.317Z,57.10
2018-09-17T15:09:49.778Z,58.00
2018-09-17T15:15:07.867Z,59.20
2018-09-17T15:17:41.160Z,59.10
2018-09-17T15:20:11.330Z,58.20
2018-09-17T15:22:44.929Z,59.10
2018-09-17T15:27:45.202Z,58.50
2018-09-17T15:30:13.855Z,57.60
2018-09-17T15:32:50.472Z,58.80
2018-09-17T15:35:18.232Z,59.00
2018-09-17T15:40:19.060Z,60.30
2018-09-17T15:42:49.277Z,60.20
2018-09-17T15:45:17.379Z,61.00
2018-09-17T15:47:50.953Z,61.70
2018-09-17T15:53:03.965Z,60.30
2018-09-17T15:55:40.264Z,61.70
2018-09-17T16:00:47.767Z,61.40
2018-09-17T16:03:16.237Z,61.40
2018-09-17T16:05:51.827Z,59.90
2018-09-17T16:08:22.992Z,59.90
2018-09-17T16:10:52.288Z,61.50
2018-09-17T16:13:22.297Z,61.30
2018-09-17T16:15:50.992Z,61.30
2018-09-17T16:18:18.511Z,61.60
2018-09-17T16:26:00.688Z,62.80
2018-09-17T16:36:12.605Z,64.40
2018-09-17T16:38:40.173Z,63.40
2018-09-17T16:41:14.326Z,63.30
2018-09-17T16:43:41.535Z,64.50
2018-09-17T16:46:10.128Z,64.30
2018-09-17T16:51:13.146Z,65.10
2018-09-17T16:53:44.231Z,66.60
2018-09-17T16:56:15.620Z,65.50
2018-09-17T16:58:46.406Z,65.20
2018-09-17T17:03:49.904Z,68.30
2018-09-17T17:06:17.708Z,68.00
2018-09-17T17:11:21.076Z,68.30
2018-09-17T17:13:52.901Z,69.40
2018-09-17T17:16:23.395Z,69.40
2018-09-17T17:18:57.780Z,69.10
2018-09-17T17:24:02.044Z,70.20
2018-09-17T17:26:29.976Z,69.30
2018-09-17T17:28:58.119Z,69.40
2018-09-17T17:31:25.829Z,70.60
2018-09-17T17:33:54.363Z,70.40
2018-09-17T17:36:23.519Z,70.20
2018-09-17T17:38:51.538Z,71.00
2018-09-17T17:41:22.390Z,72.50
2018-09-17T17:43:57.421Z,73.00
2018-09-17T17:46:27.644Z,74.10
2018-09-17T17:48:55.860Z,73.70
2018-09-17T17:54:00.353Z,74.20
2018-09-17T17:56:31.333Z,75.00
2018-09-17T18:01:33.288Z,74.60
2018-09-17T18:04:06.499Z,74.60
2018-09-17T18:06:35.782Z,75.30
2018-09-17T18:09:03.337Z,74.80
2018-09-17T18:11:32.802Z,74.10
2018-09-17T18:14:02.165Z,74.50
2018-09-17T18:19:03.288Z,76.10
2018-09-17T18:21:32.608Z,75.90
2018-09-17T18:26:37.895Z,76.20
2018-09-17T18:29:07.128Z,75.90
2018-09-17T18:31:36.000Z,76.70
2018-09-17T18:36:39.685Z,76.00
2018-09-17T18:39:08.113Z,76.90
2018-09-17T18:41:37.763Z,76.50
2018-09-17T18:44:08.444Z,76.90
2018-09-17T18:46:40.326Z,78.40
2018-09-17T18:49:09.951Z,77.50
2018-09-17T18:51:38.876Z,77.50
2018-09-17T18:56:40.991Z,76.60
2018-09-17T19:02:01.008Z,76.80
2018-09-17T19:04:28.375Z,77.10
2018-09-17T19:06:56.701Z,77.30
2018-09-17T19:09:27.213Z,77.00
2018-09-17T19:12:00.726Z,77.50
2018-09-17T19:14:34.719Z,77.60
2018-09-17T19:17:04.155Z,77.50
2018-09-17T19:19:32.695Z,77.90
2018-09-17T19:22:00.457Z,78.00
2018-09-17T19:24:28.779Z,79.30
2018-09-17T19:29:30.848Z,79.40
2018-09-17T19:31:58.733Z,79.70
2018-09-17T19:34:31.188Z,79.40
2018-09-17T19:37:05.178Z,80.30
2018-09-17T19:39:37.111Z,81.10
2018-09-17T19:42:05.585Z,81.90
2018-09-17T19:44:36.502Z,82.60
2018-09-17T19:47:06.922Z,82.90
2018-09-17T19:49:35.259Z,83.50
2018-09-17T19:52:02.866Z,82.70
2018-09-17T19:54:31.490Z,82.10
2018-09-17T19:57:01.370Z,82.10
2018-09-17T19:59:31.258Z,82.70
2018-09-17T20:01:59.735Z,82.30
2018-09-17T20:04:31.150Z,82.50
2018-09-17T20:09:31.522Z,83.10
2018-09-17T20:11:59.803Z,83.70
2018-09-17T20:14:35.356Z,83.10
2018-09-17T20:17:05.500Z,83.70
2018-09-17T20:19:34.560Z,83.90
2018-09-17T20:22:03.698Z,84.20
2018-09-17T20:27:07.344Z,84.70
2018-09-17T20:29:35.811Z,85.80
2018-09-17T20:32:06.875Z,86.60
2018-09-17T20:34:35.046Z,85.00
2018-09-17T20:37:03.426Z,85.20
2018-09-17T20:47:10.819Z,85.30
2018-09-17T20:49:42.455Z,85.00
2018-09-17T20:54:43.776Z,85.40
2018-09-17T20:57:15.561Z,85.60
2018-09-17T20:59:48.715Z,85.40
2018-09-17T21:02:17.691Z,85.00
2018-09-17T21:04:45.791Z,84.80
2018-09-17T21:07:16.143Z,84.90
2018-09-17T21:09:42.907Z,84.60
2018-09-17T21:12:10.650Z,84.60
2018-09-17T21:14:41.187Z,85.40
2018-09-17T21:17:12.271Z,85.80
2018-09-17T21:22:13.422Z,85.60
2018-09-17T21:24:43.295Z,86.20
2018-09-17T21:27:11.769Z,86.40
2018-09-17T21:29:40.843Z,85.90
2018-09-17T21:32:12.157Z,85.80
2018-09-17T21:37:12.821Z,85.50
2018-09-17T21:39:42.653Z,86.40
2018-09-17T21:42:14.136Z,86.00
2018-09-17T21:47:16.034Z,86.20
2018-09-17T21:49:43.814Z,86.10
2018-09-17T21:52:11.957Z,86.20
2018-09-17T21:54:40.127Z,86.40
2018-09-17T21:59:40.395Z,86.80
2018-09-17T22:02:11.263Z,87.60
2018-09-17T22:04:45.006Z,86.80
2018-09-17T22:07:13.381Z,86.40
2018-09-17T22:09:45.243Z,86.70
2018-09-17T22:12:13.872Z,86.60
2018-09-17T22:14:43.546Z,86.50
2018-09-17T22:17:11.923Z,87.30
2018-09-17T22:22:15.328Z,86.50
2018-09-17T22:24:43.908Z,86.90
2018-09-17T22:27:13.579Z,87.50
2018-09-17T22:29:42.313Z,87.00
2018-09-17T22:34:44.368Z,87.00
2018-09-17T22:37:18.875Z,87.40
2018-09-17T22:39:46.633Z,85.80
2018-09-17T22:47:26.673Z,87.20
2018-09-17T22:49:55.096Z,89.30
2018-09-17T23:00:00.828Z,88.40
2018-09-17T23:02:29.896Z,87.20
2018-09-17T23:04:57.784Z,87.70
2018-09-17T23:07:25.336Z,88.30
2018-09-17T23:09:55.264Z,88.10
2018-09-17T23:14:58.610Z,89.30
2018-09-17T23:17:27.070Z,88.20
2018-09-17T23:19:57.267Z,87.90
2018-09-17T23:22:27.029Z,88.30
2018-09-17T23:27:28.113Z,87.70
2018-09-17T23:29:55.861Z,88.50
2018-09-17T23:32:27.233Z,88.60
2018-09-17T23:34:59.708Z,88.90
2018-09-17T23:37:28.738Z,89.70
2018-09-17T23:39:55.783Z,90.00
2018-09-17T23:42:24.318Z,89.20
2018-09-17T23:44:52.206Z,89.10
2018-09-17T23:47:20.791Z,89.00
2018-09-17T23:52:23.622Z,88.10
2018-09-17T23:54:52.018Z,88.30
2018-09-17T23:57:19.928Z,87.90
2018-09-17T23:59:49.340Z,87.90
